createdAt,value
2022-09-02T00:02:51.364Z,1.60
2022-09-02T00:05:46.074Z,1.40
2022-09-02T00:08:37.039Z,1.40
2022-09-02T00:11:33.460Z,1.30
2022-09-02T00:14:27.911Z,1.60
2022-09-02T00:17:19.955Z,1.50
2022-09-02T00:20:12.361Z,1.30
2022-09-02T00:23:04.209Z,1.30
2022-09-02T00:25:55.433Z,1.30
2022-09-02T00:28:46.457Z,1.30
2022-09-02T00:31:45.571Z,1.60
2022-09-02T00:34:39.417Z,1.40
2022-09-02T00:37:34.852Z,1.20
2022-09-02T00:40:31.207Z,1.30
2022-09-02T00:43:39.841Z,1.20
2022-09-02T00:46:33.989Z,1.20
2022-09-02T00:49:27.488Z,1.30
2022-09-02T00:52:21.044Z,1.30
2022-09-02T00:55:16.643Z,1.30
2022-09-02T01:01:03.685Z,1.30
2022-09-02T01:03:55.531Z,1.20
2022-09-02T01:07:06.365Z,1.10
2022-09-02T01:10:21.985Z,1.30
2022-09-02T01:13:25.736Z,1.20
2022-09-02T01:16:28.337Z,1.10
2022-09-02T01:19:26.541Z,1.30
2022-09-02T01:22:20.510Z,1.40
2022-09-02T01:25:15.084Z,1.40
2022-09-02T01:28:08.987Z,1.20
2022-09-02T01:31:02.017Z,1.20
2022-09-02T01:33:55.241Z,1.50
2022-09-02T01:36:47.769Z,1.30
2022-09-02T01:39:39.661Z,1.50
2022-09-02T01:42:31.043Z,1.30
2022-09-02T01:45:24.119Z,1.60
2022-09-02T01:48:16.085Z,1.50
2022-09-02T01:51:17.124Z,1.20
2022-09-02T01:54:09.054Z,1.70
2022-09-02T01:56:59.757Z,1.70
2022-09-02T01:59:51.710Z,1.70
2022-09-02T02:02:44.209Z,1.70
2022-09-02T02:05:37.220Z,1.70
2022-09-02T02:08:28.264Z,2.00
2022-09-02T02:11:23.307Z,2.10
2022-09-02T02:14:21.149Z,1.90
2022-09-02T02:17:13.453Z,1.90
2022-09-02T02:20:08.244Z,2.20
2022-09-02T02:23:00.063Z,2.10
2022-09-02T02:25:51.452Z,2.10
2022-09-02T02:28:42.925Z,2.20
2022-09-02T02:31:34.453Z,2.40
2022-09-02T02:34:26.924Z,2.00
2022-09-02T02:37:23.410Z,2.20
2022-09-02T02:40:16.941Z,1.90
2022-09-02T02:43:09.016Z,1.80
2022-09-02T02:46:01.873Z,2.10
2022-09-02T02:48:52.060Z,2.00
2022-09-02T02:51:43.984Z,2.00
2022-09-02T02:54:35.418Z,2.00
2022-09-02T02:57:27.358Z,1.90
2022-09-02T03:00:22.950Z,2.00
2022-09-02T03:03:19.614Z,2.10
2022-09-02T03:06:13.991Z,1.90
2022-09-02T03:09:05.825Z,2.00
2022-09-02T03:11:58.888Z,1.90
2022-09-02T03:14:51.745Z,1.90
2022-09-02T03:17:46.939Z,2.00
2022-09-02T03:20:38.928Z,2.00
2022-09-02T03:23:31.893Z,1.70
2022-09-02T03:26:27.983Z,2.10
2022-09-02T03:29:20.196Z,1.90
2022-09-02T03:32:11.151Z,1.90
2022-09-02T03:35:09.390Z,2.00
2022-09-02T03:38:02.236Z,2.10
2022-09-02T03:40:54.980Z,2.30
2022-09-02T03:43:48.382Z,2.10
2022-09-02T03:46:40.229Z,2.50
2022-09-02T03:49:34.674Z,2.40
2022-09-02T03:52:29.388Z,2.40
2022-09-02T03:55:24.869Z,2.20
2022-09-02T03:58:18.866Z,2.10
2022-09-02T04:01:17.833Z,2.10
2022-09-02T04:04:13.681Z,2.20
2022-09-02T04:07:12.072Z,2.00
2022-09-02T04:10:10.950Z,2.10
2022-09-02T04:13:11.611Z,2.00
2022-09-02T04:16:11.322Z,2.00
2022-09-02T04:19:05.687Z,1.80
2022-09-02T04:22:00.892Z,1.90
2022-09-02T04:24:56.105Z,2.00
2022-09-02T04:27:56.463Z,2.10
2022-09-02T04:30:52.990Z,2.20
2022-09-02T04:33:48.477Z,2.00
2022-09-02T04:36:43.322Z,2.30
2022-09-02T04:39:37.273Z,2.00
2022-09-02T04:42:38.742Z,2.20
2022-09-02T04:45:33.546Z,2.40
2022-09-02T04:48:27.612Z,2.20
2022-09-02T04:51:21.688Z,2.40
2022-09-02T04:54:23.678Z,2.30
2022-09-02T04:57:19.654Z,2.50
2022-09-02T05:00:20.837Z,2.70
2022-09-02T05:03:27.349Z,2.30
2022-09-02T05:06:27.625Z,2.40
2022-09-02T05:09:39.307Z,2.40
2022-09-02T05:12:44.880Z,2.30
2022-09-02T05:15:49.657Z,2.70
2022-09-02T05:18:47.255Z,2.30
2022-09-02T05:21:51.284Z,2.50
2022-09-02T05:24:58.060Z,2.20
2022-09-02T05:28:00.301Z,1.70
2022-09-02T05:30:57.086Z,2.10
2022-09-02T05:34:02.355Z,2.00
2022-09-02T05:36:57.732Z,1.80
2022-09-02T05:39:56.018Z,1.90
2022-09-02T05:42:59.324Z,1.70
2022-09-02T05:46:00.988Z,1.40
2022-09-02T05:49:06.845Z,1.70
2022-09-02T05:55:13.016Z,2.40
2022-09-02T05:58:10.072Z,2.00
2022-09-02T06:01:13.124Z,2.20
2022-09-02T06:04:14.219Z,1.90
2022-09-02T06:07:19.645Z,1.80
2022-09-02T06:10:23.321Z,2.20
2022-09-02T06:13:27.430Z,1.90
2022-09-02T06:16:40.703Z,2.20
2022-09-02T06:19:49.116Z,2.30
2022-09-02T06:22:55.317Z,1.70
2022-09-02T06:25:55.316Z,1.60
2022-09-02T06:28:53.183Z,1.40
2022-09-02T06:31:56.378Z,1.70
2022-09-02T06:35:00.516Z,1.70
2022-09-02T06:38:07.399Z,1.70
2022-09-02T06:41:06.877Z,1.90
2022-09-02T06:44:10.960Z,1.40
2022-09-02T06:47:10.549Z,1.50
2022-09-02T06:50:10.434Z,1.50
2022-09-02T06:53:12.503Z,1.90
2022-09-02T06:56:15.179Z,1.50
2022-09-02T06:59:13.532Z,1.70
2022-09-02T07:05:19.381Z,1.60
2022-09-02T07:08:19.675Z,1.20
2022-09-02T07:11:29.421Z,1.50
2022-09-02T07:14:30.196Z,1.60
2022-09-02T07:17:27.500Z,1.20
2022-09-02T07:20:33.692Z,1.30
2022-09-02T07:23:32.474Z,1.30
2022-09-02T07:26:45.414Z,1.50
2022-09-02T07:29:49.425Z,1.60
2022-09-02T07:32:55.459Z,1.40
2022-09-02T07:35:57.348Z,1.80
2022-09-02T07:38:58.585Z,1.60
2022-09-02T07:41:55.467Z,1.60
2022-09-02T07:44:53.147Z,1.90
2022-09-02T07:47:59.437Z,2.10
2022-09-02T07:50:57.342Z,1.50
2022-09-02T07:53:55.471Z,1.50
2022-09-02T07:57:00.447Z,1.40
2022-09-02T08:02:55.321Z,1.60
2022-09-02T08:06:00.426Z,1.30
2022-09-02T08:08:59.905Z,1.50
2022-09-02T08:12:01.376Z,1.10
2022-09-02T08:15:06.223Z,1.30
2022-09-02T08:18:05.680Z,1.10
2022-09-02T08:21:05.525Z,1.20
2022-09-02T08:24:07.909Z,1.20
2022-09-02T08:27:22.446Z,1.00
2022-09-02T08:30:24.289Z,1.10
2022-09-02T08:33:25.265Z,1.20
2022-09-02T08:36:25.080Z,1.10
2022-09-02T08:39:36.504Z,1.00
2022-09-02T08:42:44.061Z,1.10
2022-09-02T08:45:45.821Z,1.10
2022-09-02T08:48:59.377Z,1.40
2022-09-02T08:52:00.975Z,1.20
2022-09-02T08:55:02.765Z,1.00
2022-09-02T08:57:59.275Z,1.00
2022-09-02T09:01:08.245Z,1.10
2022-09-02T09:04:28.156Z,1.00
2022-09-02T09:10:47.570Z,1.10
2022-09-02T09:14:07.514Z,1.00
2022-09-02T09:17:06.540Z,1.30
2022-09-02T09:20:11.549Z,0.70
2022-09-02T09:23:34.073Z,1.10
2022-09-02T09:26:48.499Z,1.10
2022-09-02T09:29:49.464Z,1.10
2022-09-02T09:32:58.331Z,0.90
2022-09-02T09:35:59.521Z,1.00
2022-09-02T09:39:00.888Z,1.10
2022-09-02T09:41:59.250Z,1.20
2022-09-02T09:44:56.580Z,0.90
2022-09-02T09:48:27.841Z,1.00
2022-09-02T09:51:27.565Z,1.00
2022-09-02T09:54:29.447Z,1.10
2022-09-02T09:57:35.573Z,0.80
2022-09-02T10:00:34.421Z,1.00
2022-09-02T10:03:46.464Z,1.00
2022-09-02T10:06:50.533Z,0.90
2022-09-02T10:09:58.491Z,1.10
2022-09-02T10:13:20.471Z,1.20
2022-09-02T10:17:03.091Z,0.90
2022-09-02T10:20:04.695Z,0.90
2022-09-02T10:23:43.504Z,1.00
2022-09-02T10:26:49.701Z,0.90
2022-09-02T10:29:57.868Z,1.00
2022-09-02T10:33:24.719Z,1.30
2022-09-02T10:36:34.112Z,0.80
2022-09-02T10:39:45.540Z,0.80
2022-09-02T10:42:56.295Z,1.00
2022-09-02T10:46:02.095Z,0.90
2022-09-02T10:49:11.464Z,0.90
2022-09-02T10:52:19.490Z,0.80
2022-09-02T10:55:30.764Z,0.80
2022-09-02T10:58:45.400Z,0.80
2022-09-02T11:01:50.509Z,0.90
2022-09-02T11:05:00.316Z,0.90
2022-09-02T11:08:08.424Z,1.00
2022-09-02T11:11:11.524Z,0.90
2022-09-02T11:14:21.879Z,0.80
2022-09-02T11:17:27.562Z,0.90
2022-09-02T11:20:38.736Z,1.10
2022-09-02T11:23:52.577Z,0.80
2022-09-02T11:26:56.976Z,0.90
2022-09-02T11:30:05.306Z,1.10
2022-09-02T11:33:19.489Z,0.80
2022-09-02T11:36:22.448Z,0.90
2022-09-02T11:39:36.555Z,0.70
2022-09-02T11:43:16.597Z,0.90
2022-09-02T11:46:47.179Z,0.80
2022-09-02T11:50:09.538Z,1.10
2022-09-02T11:56:34.601Z,0.90
2022-09-02T12:00:13.558Z,0.80
2022-09-02T12:04:06.491Z,0.90
2022-09-02T12:07:34.000Z,0.90
2022-09-02T12:11:08.148Z,1.00
2022-09-02T12:14:15.721Z,1.00
2022-09-02T12:18:10.283Z,0.80
2022-09-02T12:21:59.483Z,0.80
2022-09-02T12:25:04.460Z,0.90
2022-09-02T12:28:26.151Z,0.90
2022-09-02T12:31:43.172Z,0.90
2022-09-02T12:34:57.490Z,0.90
2022-09-02T12:38:00.240Z,0.80
2022-09-02T12:41:34.162Z,0.90
2022-09-02T12:44:36.887Z,0.80
2022-09-02T12:47:48.780Z,0.80
2022-09-02T12:51:04.618Z,0.80
2022-09-02T12:54:10.545Z,0.90
2022-09-02T12:57:20.243Z,0.70
2022-09-02T13:00:41.846Z,0.80
2022-09-02T13:04:30.952Z,0.90
2022-09-02T13:08:29.671Z,0.90
2022-09-02T13:12:11.601Z,0.80
2022-09-02T13:15:52.905Z,0.80
2022-09-02T13:19:41.656Z,0.70
2022-09-02T13:23:25.494Z,0.70
2022-09-02T13:27:08.736Z,0.80
2022-09-02T13:30:23.584Z,0.70
2022-09-02T13:33:21.443Z,0.80
2022-09-02T13:36:32.702Z,0.70
2022-09-02T13:39:34.433Z,0.60
2022-09-02T13:42:42.568Z,0.70
2022-09-02T13:45:44.150Z,0.80
2022-09-02T13:48:45.804Z,1.30
2022-09-02T13:51:49.357Z,0.60
2022-09-02T13:55:07.657Z,0.50
2022-09-02T13:58:30.902Z,0.50
2022-09-02T14:01:34.620Z,0.50
2022-09-02T14:04:42.674Z,0.90
2022-09-02T14:07:42.510Z,0.70
2022-09-02T14:10:43.585Z,0.50
2022-09-02T14:13:53.748Z,0.80
2022-09-02T14:17:00.639Z,1.70
2022-09-02T14:23:18.517Z,0.80
2022-09-02T14:26:31.687Z,0.90
2022-09-02T14:29:33.867Z,1.60
2022-09-02T14:32:35.450Z,0.70
2022-09-02T14:35:32.308Z,0.80
2022-09-02T14:38:30.588Z,2.10
2022-09-02T14:41:41.696Z,1.00
2022-09-02T14:44:44.633Z,2.60
2022-09-02T14:47:43.120Z,2.50
2022-09-02T14:50:41.333Z,0.70
2022-09-02T14:53:49.617Z,1.00
2022-09-02T14:57:02.693Z,1.50
2022-09-02T15:00:08.382Z,2.50
2022-09-02T15:03:09.658Z,3.30
2022-09-02T15:06:16.719Z,1.00
2022-09-02T15:09:22.692Z,5.90
2022-09-02T15:15:34.980Z,4.00
2022-09-02T15:18:30.645Z,3.10
2022-09-02T15:21:32.923Z,3.30
2022-09-02T15:24:33.647Z,3.60
2022-09-02T15:27:40.713Z,1.90
2022-09-02T15:30:57.902Z,1.70
2022-09-02T15:34:11.733Z,1.60
2022-09-02T15:37:12.182Z,1.40
2022-09-02T15:40:13.619Z,1.50
2022-09-02T15:43:22.824Z,1.10
2022-09-02T15:46:32.793Z,1.20
2022-09-02T15:49:35.575Z,1.40
2022-09-02T15:52:53.745Z,1.20
2022-09-02T15:56:05.710Z,1.30
2022-09-02T15:59:15.793Z,1.00
2022-09-02T16:02:18.418Z,1.00
2022-09-02T16:05:29.733Z,1.10
2022-09-02T16:08:36.218Z,0.90
2022-09-02T16:11:39.350Z,1.20
2022-09-02T16:14:53.070Z,1.00
2022-09-02T16:17:56.140Z,1.00
2022-09-02T16:21:04.742Z,1.00
2022-09-02T16:24:13.281Z,1.20
2022-09-02T16:27:14.623Z,1.60
2022-09-02T16:30:16.809Z,2.10
2022-09-02T16:33:20.009Z,2.00
2022-09-02T16:36:17.680Z,2.50
2022-09-02T16:39:23.491Z,1.90
2022-09-02T16:42:38.353Z,2.10
2022-09-02T16:45:43.782Z,1.60
2022-09-02T16:48:45.539Z,1.80
2022-09-02T16:51:45.134Z,1.70
2022-09-02T16:54:50.748Z,1.30
2022-09-02T16:57:55.737Z,1.50
2022-09-02T17:01:15.053Z,1.50
2022-09-02T17:04:25.469Z,1.30
2022-09-02T17:07:28.809Z,1.60
2022-09-02T17:10:40.755Z,1.50
2022-09-02T17:13:45.885Z,1.30
2022-09-02T17:16:52.968Z,1.50
2022-09-02T17:20:08.426Z,1.40
2022-09-02T17:23:18.874Z,1.70
2022-09-02T17:26:21.489Z,1.70
2022-09-02T17:32:56.663Z,1.40
2022-09-02T17:36:06.584Z,1.50
2022-09-02T17:39:11.524Z,1.80
2022-09-02T17:42:12.292Z,2.30
2022-09-02T17:45:10.759Z,1.80
2022-09-02T17:48:53.684Z,2.00
2022-09-02T17:51:47.458Z,2.20
2022-09-02T17:54:51.292Z,2.00
2022-09-02T17:58:06.855Z,1.40
2022-09-02T18:01:11.728Z,1.40
2022-09-02T18:04:30.806Z,1.40
2022-09-02T18:07:41.912Z,1.50
2022-09-02T18:10:57.304Z,1.60
2022-09-02T18:14:18.819Z,1.60
2022-09-02T18:17:38.146Z,2.70
2022-09-02T18:20:51.841Z,2.00
2022-09-02T18:24:02.449Z,2.10
2022-09-02T18:27:25.934Z,1.80
2022-09-02T18:34:28.375Z,1.80
2022-09-02T18:37:54.830Z,1.80
2022-09-02T18:40:55.986Z,1.50
2022-09-02T18:44:22.652Z,1.90
2022-09-02T18:47:36.291Z,2.10
2022-09-02T18:50:56.481Z,2.20
2022-09-02T18:54:13.672Z,2.10
2022-09-02T19:00:43.310Z,1.80
2022-09-02T19:03:49.519Z,2.00
2022-09-02T19:07:16.670Z,2.00
2022-09-02T19:10:22.501Z,2.20
2022-09-02T19:13:47.905Z,2.40
2022-09-02T19:19:53.196Z,2.80
2022-09-02T19:26:09.422Z,2.50
2022-09-02T19:29:20.586Z,2.20
2022-09-02T19:32:35.888Z,2.10
2022-09-02T19:35:42.837Z,2.40
2022-09-02T19:38:52.638Z,2.10
2022-09-02T19:41:55.625Z,2.10
2022-09-02T19:45:06.482Z,1.70
2022-09-02T19:48:12.498Z,1.90
2022-09-02T19:51:17.844Z,2.10
2022-09-02T19:54:30.554Z,1.80
2022-09-02T19:57:31.865Z,1.70
2022-09-02T20:00:43.046Z,1.90
2022-09-02T20:03:54.883Z,1.90
2022-09-02T20:06:54.484Z,2.00
2022-09-02T20:09:57.663Z,1.70
2022-09-02T20:13:06.961Z,1.70
2022-09-02T20:16:23.964Z,2.00
2022-09-02T20:19:22.807Z,1.60
2022-09-02T20:22:31.906Z,2.00
2022-09-02T20:25:45.062Z,1.70
2022-09-02T20:28:49.505Z,1.50
2022-09-02T20:32:11.955Z,1.60
2022-09-02T20:35:34.268Z,1.50
2022-09-02T20:39:12.480Z,1.70
2022-09-02T20:42:36.190Z,1.50
2022-09-02T20:45:40.109Z,1.30
2022-09-02T20:48:54.983Z,1.50
2022-09-02T20:52:07.821Z,1.60
2022-09-02T20:55:14.945Z,1.40
2022-09-02T20:58:36.798Z,1.50
2022-09-02T21:01:39.277Z,1.30
2022-09-02T21:04:53.931Z,1.50
2022-09-02T21:08:07.893Z,1.30
2022-09-02T21:11:16.815Z,1.40
2022-09-02T21:14:21.576Z,1.30
2022-09-02T21:17:34.036Z,1.60
2022-09-02T21:20:46.474Z,1.10
2022-09-02T21:23:49.953Z,1.30
2022-09-02T21:27:00.640Z,1.50
2022-09-02T21:30:02.273Z,1.50
2022-09-02T21:33:05.505Z,1.40
2022-09-02T21:36:11.169Z,1.30
2022-09-02T21:39:14.545Z,1.30
2022-09-02T21:42:23.871Z,1.20
2022-09-02T21:45:28.148Z,1.10
2022-09-02T21:48:39.962Z,1.40
2022-09-02T21:51:46.676Z,1.40
2022-09-02T21:54:52.514Z,1.20
2022-09-02T21:58:00.226Z,1.00
2022-09-02T22:01:08.827Z,1.40
2022-09-02T22:04:11.510Z,1.30
2022-09-02T22:07:19.777Z,1.20
2022-09-02T22:10:22.323Z,1.30
2022-09-02T22:13:16.909Z,1.20
2022-09-02T22:16:21.829Z,1.20
2022-09-02T22:19:35.956Z,1.10
2022-09-02T22:22:32.525Z,1.10
2022-09-02T22:25:29.991Z,1.20
2022-09-02T22:28:39.528Z,1.30
2022-09-02T22:31:42.708Z,1.30
2022-09-02T22:34:44.604Z,1.20
2022-09-02T22:37:52.828Z,1.20
2022-09-02T22:40:50.157Z,1.10
2022-09-02T22:43:53.571Z,1.20
2022-09-02T22:47:11.834Z,1.20
2022-09-02T22:50:30.044Z,1.30
2022-09-02T22:53:32.417Z,1.00
2022-09-02T22:56:39.482Z,1.10
2022-09-02T22:59:41.805Z,1.10
2022-09-02T23:02:43.777Z,1.10
2022-09-02T23:05:53.735Z,1.20
2022-09-02T23:08:49.448Z,1.10
2022-09-02T23:11:57.988Z,1.30
2022-09-02T23:15:04.457Z,1.20
2022-09-02T23:18:03.352Z,1.30
2022-09-02T23:21:02.994Z,1.00
2022-09-02T23:24:05.076Z,1.10
2022-09-02T23:27:03.817Z,1.10
2022-09-02T23:29:57.905Z,0.80
2022-09-02T23:33:10.757Z,1.10
2022-09-02T23:36:14.677Z,1.00
2022-09-02T23:39:22.882Z,0.90
2022-09-02T23:42:22.180Z,1.20
2022-09-02T23:45:24.955Z,1.10
2022-09-02T23:48:30.969Z,1.00
2022-09-02T23:57:54.630Z,1.00
